createdAt,value
2022-11-14T00:00:49.486Z,100508.88
2022-11-14T00:03:17.170Z,100512.28
2022-11-14T00:05:45.604Z,100509.84
2022-11-14T00:08:20.120Z,100500.97
2022-11-14T00:10:48.313Z,100511.34
2022-11-14T00:13:15.945Z,100500.75
2022-11-14T00:15:42.996Z,100499.88
2022-11-14T00:18:11.450Z,100489.16
2022-11-14T00:20:38.037Z,100497.22
2022-11-14T00:23:04.938Z,100499.44
2022-11-14T00:25:32.264Z,100492.09
2022-11-14T00:27:59.593Z,100494.22
2022-11-14T00:30:27.768Z,100493.59
2022-11-14T00:32:58.593Z,100493.06
2022-11-14T00:35:25.242Z,100496.28
2022-11-14T00:37:52.415Z,100498.25
2022-11-14T00:40:19.036Z,100497.50
2022-11-14T00:42:45.492Z,100490.69
2022-11-14T00:45:12.802Z,100494.34
2022-11-14T00:47:39.491Z,100492.63
2022-11-14T00:50:06.662Z,100481.44
2022-11-14T00:52:33.238Z,100479.84
2022-11-14T00:54:59.809Z,100475.09
2022-11-14T00:57:26.271Z,100474.38
2022-11-14T00:59:55.670Z,100473.13
2022-11-14T01:02:22.831Z,100476.13
2022-11-14T01:04:49.461Z,100471.91
2022-11-14T01:07:16.034Z,100468.38
2022-11-14T01:09:43.358Z,100464.06
2022-11-14T01:12:11.356Z,100463.34
2022-11-14T01:14:41.107Z,100477.22
2022-11-14T01:17:09.716Z,100466.34
2022-11-14T01:19:38.105Z,100461.72
2022-11-14T01:22:06.806Z,100462.81
2022-11-14T01:24:35.670Z,100461.25
2022-11-14T01:27:04.056Z,100451.59
2022-11-14T01:29:31.939Z,100437.66
2022-11-14T01:31:59.637Z,100441.91
2022-11-14T01:34:27.743Z,100444.84
2022-11-14T01:36:56.067Z,100427.13
2022-11-14T01:39:24.113Z,100436.66
2022-11-14T01:41:52.282Z,100432.50
2022-11-14T01:44:49.777Z,100430.66
2022-11-14T01:47:20.786Z,100431.78
2022-11-14T01:49:52.532Z,100428.63
2022-11-14T01:52:28.872Z,100422.88
2022-11-14T01:54:59.894Z,100423.47
2022-11-14T01:57:37.573Z,100407.38
2022-11-14T02:00:11.607Z,100403.97
2022-11-14T02:02:38.575Z,100398.44
2022-11-14T02:05:16.873Z,100395.22
2022-11-14T02:07:44.612Z,100387.41
2022-11-14T02:10:18.345Z,100380.19
2022-11-14T02:12:45.933Z,100384.94
2022-11-14T02:15:14.839Z,100373.75
2022-11-14T02:17:42.981Z,100378.47
2022-11-14T02:20:10.889Z,100370.81
2022-11-14T02:22:39.755Z,100364.41
2022-11-14T02:25:08.615Z,100371.63
2022-11-14T02:27:38.581Z,100359.50
2022-11-14T02:30:09.307Z,100356.22
2022-11-14T02:35:24.345Z,100356.41
2022-11-14T02:37:51.633Z,100341.28
2022-11-14T02:40:19.244Z,100345.09
2022-11-14T02:42:46.905Z,100348.03
2022-11-14T02:45:14.646Z,100335.31
2022-11-14T02:47:41.876Z,100344.09
2022-11-14T02:50:09.783Z,100341.34
2022-11-14T02:52:36.705Z,100335.31
2022-11-14T02:55:05.276Z,100327.66
2022-11-14T02:57:32.574Z,100327.06
2022-11-14T03:00:00.065Z,100324.03
2022-11-14T03:02:27.780Z,100315.31
2022-11-14T03:04:56.135Z,100320.97
2022-11-14T03:07:23.816Z,100316.38
2022-11-14T03:09:51.795Z,100314.41
2022-11-14T03:12:20.418Z,100309.31
2022-11-14T03:14:48.130Z,100313.97
2022-11-14T03:17:15.676Z,100314.94
2022-11-14T03:19:43.524Z,100314.34
2022-11-14T03:22:11.430Z,100308.34
2022-11-14T03:24:38.945Z,100314.81
2022-11-14T03:27:06.292Z,100302.13
2022-11-14T03:29:33.641Z,100306.63
2022-11-14T03:32:00.990Z,100311.28
2022-11-14T03:34:28.695Z,100315.94
2022-11-14T03:36:55.952Z,100306.38
2022-11-14T03:39:24.327Z,100312.13
2022-11-14T03:41:51.666Z,100300.28
2022-11-14T03:44:19.719Z,100310.75
2022-11-14T03:46:47.225Z,100304.38
2022-11-14T03:49:13.892Z,100299.00
2022-11-14T03:51:40.694Z,100302.59
2022-11-14T03:54:07.722Z,100291.91
2022-11-14T03:56:34.422Z,100293.34
2022-11-14T03:59:01.622Z,100282.09
2022-11-14T04:01:29.340Z,100283.09
2022-11-14T04:03:56.266Z,100291.28
2022-11-14T04:06:23.567Z,100273.09
2022-11-14T04:08:51.915Z,100271.25
2022-11-14T04:11:19.587Z,100264.19
2022-11-14T04:13:46.849Z,100261.94
2022-11-14T04:16:14.284Z,100264.59
2022-11-14T04:18:41.763Z,100261.19
2022-11-14T04:21:08.550Z,100262.47
2022-11-14T04:23:35.390Z,100251.16
2022-11-14T04:26:02.595Z,100246.97
2022-11-14T04:28:31.921Z,100239.09
2022-11-14T04:31:00.884Z,100232.84
2022-11-14T04:33:29.182Z,100231.59
2022-11-14T04:35:57.779Z,100237.81
2022-11-14T04:38:25.819Z,100237.81
2022-11-14T04:40:54.254Z,100229.63
2022-11-14T04:43:21.257Z,100225.34
2022-11-14T04:45:47.855Z,100215.91
2022-11-14T04:48:14.503Z,100217.75
2022-11-14T04:50:41.130Z,100207.88
2022-11-14T04:53:07.837Z,100201.09
2022-11-14T04:55:34.450Z,100201.63
2022-11-14T04:58:00.948Z,100197.41
2022-11-14T05:00:27.480Z,100208.44
2022-11-14T05:02:54.003Z,100211.81
2022-11-14T05:05:20.786Z,100209.84
2022-11-14T05:07:47.375Z,100215.31
2022-11-14T05:10:14.067Z,100211.78
2022-11-14T05:12:40.576Z,100212.63
2022-11-14T05:15:08.131Z,100217.69
2022-11-14T05:17:34.635Z,100203.16
2022-11-14T05:20:01.144Z,100218.84
2022-11-14T05:22:27.716Z,100215.13
2022-11-14T05:24:54.454Z,100212.63
2022-11-14T05:27:21.017Z,100213.16
2022-11-14T05:29:47.462Z,100212.63
2022-11-14T05:32:16.418Z,100214.88
2022-11-14T05:34:43.264Z,100215.03
2022-11-14T05:37:09.716Z,100212.38
2022-11-14T05:39:36.228Z,100206.56
2022-11-14T05:42:02.629Z,100210.66
2022-11-14T05:44:29.121Z,100211.91
2022-11-14T05:46:55.630Z,100205.28
2022-11-14T05:49:23.182Z,100217.16
2022-11-14T05:51:49.629Z,100215.16
2022-11-14T05:54:16.301Z,100203.72
2022-11-14T05:56:42.734Z,100211.78
2022-11-14T05:59:09.139Z,100211.84
2022-11-14T06:01:35.682Z,100213.97
2022-11-14T06:04:05.828Z,100216.88
2022-11-14T06:06:32.269Z,100217.94
2022-11-14T06:08:58.692Z,100215.97
2022-11-14T06:11:25.141Z,100234.50
2022-11-14T06:13:51.579Z,100229.44
2022-11-14T06:16:19.346Z,100232.97
2022-11-14T06:18:45.972Z,100231.66
2022-11-14T06:21:18.088Z,100241.28
2022-11-14T06:23:45.394Z,100235.47
2022-11-14T06:26:21.542Z,100236.63
2022-11-14T06:28:49.532Z,100240.69
2022-11-14T06:31:16.241Z,100237.16
2022-11-14T06:33:42.760Z,100239.97
2022-11-14T06:36:09.940Z,100239.13
2022-11-14T06:38:39.222Z,100241.53
2022-11-14T06:41:16.516Z,100242.13
2022-11-14T06:43:47.761Z,100238.59
2022-11-14T06:46:16.841Z,100248.81
2022-11-14T06:48:45.134Z,100249.91
2022-11-14T06:51:12.743Z,100251.09
2022-11-14T06:53:39.888Z,100245.31
2022-11-14T06:56:14.853Z,100244.03
2022-11-14T06:58:44.024Z,100239.22
2022-11-14T07:01:25.989Z,100247.16
2022-11-14T07:03:52.570Z,100248.97
2022-11-14T07:06:21.909Z,100249.25
2022-11-14T07:08:48.754Z,100256.22
2022-11-14T07:11:23.257Z,100252.97
2022-11-14T07:13:51.292Z,100264.41
2022-11-14T07:16:18.647Z,100256.34
2022-11-14T07:18:45.550Z,100262.44
2022-11-14T07:21:14.539Z,100259.22
2022-11-14T07:23:42.674Z,100255.13
2022-11-14T07:26:11.487Z,100256.00
2022-11-14T07:28:40.744Z,100263.47
2022-11-14T07:31:08.749Z,100269.75
2022-11-14T07:33:35.503Z,100253.59
2022-11-14T07:36:02.378Z,100261.44
2022-11-14T07:38:31.115Z,100268.91
2022-11-14T07:41:00.448Z,100265.09
2022-11-14T07:43:27.821Z,100263.41
2022-11-14T07:45:54.825Z,100267.56
2022-11-14T07:48:22.428Z,100266.91
2022-11-14T07:50:48.906Z,100258.50
2022-11-14T07:53:16.679Z,100250.38
2022-11-14T07:55:43.667Z,100248.84
2022-11-14T07:58:10.144Z,100261.06
2022-11-14T08:00:36.666Z,100239.84
2022-11-14T08:03:03.290Z,100236.16
2022-11-14T08:05:29.733Z,100234.63
2022-11-14T08:07:56.236Z,100227.88
2022-11-14T08:10:22.719Z,100217.03
2022-11-14T08:13:17.548Z,100224.59
2022-11-14T08:15:44.414Z,100223.09
2022-11-14T08:18:10.942Z,100225.78
2022-11-14T08:20:37.371Z,100229.53
2022-11-14T08:23:05.158Z,100239.34
2022-11-14T08:25:31.813Z,100238.66
2022-11-14T08:27:58.339Z,100239.19
2022-11-14T08:30:25.241Z,100238.16
2022-11-14T08:32:51.757Z,100239.84
2022-11-14T08:35:18.262Z,100230.41
2022-11-14T08:37:44.730Z,100251.69
2022-11-14T08:40:11.975Z,100268.25
2022-11-14T08:42:38.459Z,100264.97
2022-11-14T08:45:05.564Z,100256.91
2022-11-14T08:47:32.053Z,100236.66
2022-11-14T08:49:58.495Z,100250.78
2022-11-14T08:52:24.973Z,100244.03
2022-11-14T08:54:51.481Z,100252.84
2022-11-14T08:57:17.885Z,100272.69
2022-11-14T08:59:44.320Z,100278.22
2022-11-14T09:02:13.853Z,100252.19
2022-11-14T09:04:40.378Z,100246.19
2022-11-14T09:07:07.053Z,100242.72
2022-11-14T09:09:33.569Z,100247.66
2022-11-14T09:12:00.133Z,100253.69
2022-11-14T09:14:26.833Z,100246.59
2022-11-14T09:16:53.371Z,100234.09
2022-11-14T09:19:19.895Z,100245.06
2022-11-14T09:21:46.346Z,100253.88
2022-11-14T09:24:12.830Z,100253.91
2022-11-14T09:26:39.284Z,100252.56
2022-11-14T09:29:06.557Z,100249.47
2022-11-14T09:31:33.190Z,100251.19
2022-11-14T09:33:59.842Z,100254.69
2022-11-14T09:36:26.422Z,100235.22
2022-11-14T09:38:52.878Z,100232.69
2022-11-14T09:41:31.700Z,100226.84
2022-11-14T09:43:58.158Z,100211.94
2022-11-14T09:46:47.429Z,100222.28
2022-11-14T09:49:36.865Z,100250.88
2022-11-14T09:52:17.565Z,100229.03
2022-11-14T09:54:53.060Z,100207.44
2022-11-14T09:57:20.433Z,100211.78
2022-11-14T09:59:46.854Z,100218.34
2022-11-14T10:02:35.211Z,100202.34
2022-11-14T10:05:19.764Z,100202.16
2022-11-14T10:08:15.408Z,100205.38
2022-11-14T10:11:17.308Z,100179.81
2022-11-14T10:14:17.724Z,100184.88
2022-11-14T10:16:53.447Z,100190.84
2022-11-14T10:19:38.654Z,100186.47
2022-11-14T10:22:42.807Z,100208.50
2022-11-14T10:25:22.936Z,100197.59
2022-11-14T10:28:27.217Z,100202.50
2022-11-14T10:31:09.528Z,100188.97
2022-11-14T10:33:57.592Z,100206.56
2022-11-14T10:36:29.976Z,100202.84
2022-11-14T10:39:05.510Z,100207.06
2022-11-14T10:41:56.272Z,100180.53
2022-11-14T10:44:22.372Z,100193.38
2022-11-14T10:46:52.475Z,100170.06
2022-11-14T10:49:24.599Z,100175.75
2022-11-14T10:51:54.474Z,100168.03
2022-11-14T10:54:28.888Z,100166.16
2022-11-14T10:56:55.519Z,100169.06
2022-11-14T10:59:22.475Z,100174.38
2022-11-14T11:01:53.847Z,100178.00
2022-11-14T11:04:36.590Z,100180.63
2022-11-14T11:07:09.273Z,100171.25
2022-11-14T11:09:58.647Z,100176.94
2022-11-14T11:12:41.058Z,100180.00
2022-11-14T11:15:22.869Z,100155.03
2022-11-14T11:17:57.382Z,100159.91
2022-11-14T11:20:26.396Z,100167.03
2022-11-14T11:23:11.833Z,100177.47
2022-11-14T11:25:40.208Z,100167.06
2022-11-14T11:28:18.478Z,100165.69
2022-11-14T11:31:00.429Z,100160.19
2022-11-14T11:33:30.315Z,100159.13
2022-11-14T11:36:00.388Z,100168.31
2022-11-14T11:38:29.335Z,100159.34
2022-11-14T11:41:25.876Z,100171.06
2022-11-14T11:44:07.607Z,100144.53
2022-11-14T11:46:52.573Z,100130.44
2022-11-14T11:49:50.058Z,100134.16
2022-11-14T11:52:37.889Z,100139.94
2022-11-14T11:55:35.703Z,100124.63
2022-11-14T11:58:06.459Z,100124.13
2022-11-14T12:00:33.406Z,100182.56
2022-11-14T12:03:00.371Z,100135.41
2022-11-14T12:05:46.410Z,100132.53
2022-11-14T12:08:21.726Z,100126.88
2022-11-14T12:10:49.051Z,100124.00
2022-11-14T12:13:54.149Z,100120.69
2022-11-14T12:16:55.304Z,100135.91
2022-11-14T12:19:33.586Z,100132.03
2022-11-14T12:22:00.086Z,100127.78
2022-11-14T12:24:53.644Z,100119.13
2022-11-14T12:27:51.351Z,100138.91
2022-11-14T12:30:23.492Z,100136.50
2022-11-14T12:33:08.568Z,100133.44
2022-11-14T12:35:36.414Z,100120.63
2022-11-14T12:38:05.146Z,100123.59
2022-11-14T12:40:58.368Z,100128.81
2022-11-14T12:43:37.291Z,100134.22
2022-11-14T12:46:06.462Z,100140.50
2022-11-14T12:48:34.886Z,100132.97
2022-11-14T12:51:02.404Z,100133.16
2022-11-14T12:53:38.071Z,100138.88
2022-11-14T12:56:25.866Z,100129.34
2022-11-14T12:59:05.756Z,100122.28
2022-11-14T13:01:50.846Z,100104.97
2022-11-14T13:04:24.850Z,100114.09
2022-11-14T13:06:58.508Z,100124.63
2022-11-14T13:09:33.847Z,100116.00
2022-11-14T13:12:38.862Z,100123.22
2022-11-14T13:15:48.825Z,100119.19
2022-11-14T13:18:45.400Z,100115.16
2022-11-14T13:21:46.024Z,100120.19
2022-11-14T13:24:18.595Z,100116.69
2022-11-14T13:26:46.109Z,100112.63
2022-11-14T13:29:49.668Z,100110.25
2022-11-14T13:32:41.823Z,100106.72
2022-11-14T13:35:23.492Z,100103.84
2022-11-14T13:37:59.891Z,100100.44
2022-11-14T13:40:51.451Z,100109.91
2022-11-14T13:43:36.629Z,100114.78
2022-11-14T13:46:30.720Z,100113.75
2022-11-14T13:49:29.590Z,100107.19
2022-11-14T13:51:56.383Z,100118.28
2022-11-14T13:54:22.954Z,100105.19
2022-11-14T13:57:01.309Z,100106.09
2022-11-14T13:59:55.302Z,100108.84
2022-11-14T14:02:43.690Z,100106.47
2022-11-14T14:05:36.347Z,100104.59
2022-11-14T14:08:33.545Z,100091.09
2022-11-14T14:11:09.394Z,100101.06
2022-11-14T14:14:13.778Z,100088.22
2022-11-14T14:16:56.098Z,100086.78
2022-11-14T14:19:38.578Z,100098.47
2022-11-14T14:22:10.154Z,100100.97
2022-11-14T14:24:50.946Z,100086.03
2022-11-14T14:27:28.944Z,100097.84
2022-11-14T14:30:17.275Z,100078.22
2022-11-14T14:32:43.851Z,100079.22
2022-11-14T14:35:28.475Z,100067.28
2022-11-14T14:37:56.375Z,100066.31
2022-11-14T14:40:33.790Z,100073.50
2022-11-14T14:43:01.660Z,100064.84
2022-11-14T14:45:29.803Z,100062.47
2022-11-14T14:48:05.962Z,100063.25
2022-11-14T14:50:47.570Z,100061.72
2022-11-14T14:53:22.385Z,100070.09
2022-11-14T14:55:57.424Z,100073.09
2022-11-14T14:58:24.995Z,100072.88
2022-11-14T15:00:59.314Z,100066.50
2022-11-14T15:03:46.975Z,100068.28
2022-11-14T15:06:30.608Z,100058.44
2022-11-14T15:09:03.295Z,100065.94
2022-11-14T15:11:32.681Z,100063.16
2022-11-14T15:14:01.183Z,100055.19
2022-11-14T15:16:28.707Z,100054.94
2022-11-14T15:18:56.614Z,100050.41
2022-11-14T15:21:27.484Z,100045.75
2022-11-14T15:24:13.573Z,100048.78
2022-11-14T15:26:40.404Z,100048.19
2022-11-14T15:29:27.922Z,100056.81
2022-11-14T15:32:02.523Z,100052.03
2022-11-14T15:34:30.565Z,100054.03
2022-11-14T15:37:13.776Z,100056.25
2022-11-14T15:39:40.815Z,100055.47
2022-11-14T15:42:28.840Z,100055.28
2022-11-14T15:44:55.928Z,100056.63
2022-11-14T15:47:24.771Z,100059.09
2022-11-14T15:49:59.379Z,100060.81
2022-11-14T15:52:30.730Z,100064.78
2022-11-14T15:54:57.218Z,100064.53
2022-11-14T15:57:23.749Z,100064.16
2022-11-14T15:59:50.249Z,100062.78
2022-11-14T16:02:21.036Z,100058.16
2022-11-14T16:04:48.182Z,100056.59
2022-11-14T16:07:16.590Z,100056.75
2022-11-14T16:09:43.535Z,100056.91
2022-11-14T16:12:10.373Z,100067.97
2022-11-14T16:14:37.159Z,100068.56
2022-11-14T16:17:03.989Z,100063.50
2022-11-14T16:19:30.708Z,100073.81
2022-11-14T16:22:02.856Z,100064.63
2022-11-14T16:24:34.009Z,100070.56
2022-11-14T16:27:00.878Z,100067.31
2022-11-14T16:29:27.502Z,100068.06
2022-11-14T16:31:55.278Z,100059.44
2022-11-14T16:34:24.243Z,100062.38
2022-11-14T16:36:58.108Z,100060.72
2022-11-14T16:39:24.650Z,100056.50
2022-11-14T16:41:51.147Z,100053.66
2022-11-14T16:44:18.762Z,100050.56
2022-11-14T16:46:45.945Z,100044.34
2022-11-14T16:49:16.431Z,100044.94
2022-11-14T16:51:48.940Z,100047.31
2022-11-14T16:54:21.289Z,100053.19
2022-11-14T16:56:48.487Z,100050.03
2022-11-14T16:59:15.290Z,100054.59
2022-11-14T17:01:43.126Z,100042.31
2022-11-14T17:04:10.222Z,100038.47
2022-11-14T17:06:36.810Z,100038.06
2022-11-14T17:09:04.237Z,100041.63
2022-11-14T17:11:31.041Z,100040.63
2022-11-14T17:13:58.187Z,100043.31
2022-11-14T17:16:25.632Z,100044.16
2022-11-14T17:18:55.825Z,100044.44
2022-11-14T17:21:23.028Z,100059.69
2022-11-14T17:24:01.683Z,100046.69
2022-11-14T17:26:29.040Z,100043.03
2022-11-14T17:28:56.134Z,100046.41
2022-11-14T17:31:22.832Z,100046.28
2022-11-14T17:33:54.114Z,100040.78
2022-11-14T17:36:21.474Z,100044.59
2022-11-14T17:38:47.986Z,100048.97
2022-11-14T17:41:14.461Z,100041.03
2022-11-14T17:43:41.071Z,100039.06
2022-11-14T17:46:12.545Z,100045.00
2022-11-14T17:48:42.725Z,100036.81
2022-11-14T17:51:12.763Z,100038.50
2022-11-14T17:53:39.776Z,100047.00
2022-11-14T17:56:07.781Z,100036.53
2022-11-14T17:58:35.033Z,100040.91
2022-11-14T18:01:02.479Z,100045.78
2022-11-14T18:03:29.043Z,100034.84
2022-11-14T18:06:08.050Z,100037.00
2022-11-14T18:08:35.025Z,100049.25
2022-11-14T18:11:02.844Z,100043.25
2022-11-14T18:13:29.388Z,100045.59
2022-11-14T18:16:00.672Z,100038.56
2022-11-14T18:18:27.133Z,100032.66
2022-11-14T18:20:53.706Z,100030.94
2022-11-14T18:23:20.139Z,100035.16
2022-11-14T18:25:46.835Z,100037.72
2022-11-14T18:28:13.268Z,100027.00
2022-11-14T18:30:41.769Z,100029.31
2022-11-14T18:33:08.530Z,100017.66
2022-11-14T18:35:35.109Z,100026.28
2022-11-14T18:38:01.594Z,100026.13
2022-11-14T18:40:28.042Z,100022.88
2022-11-14T18:42:54.474Z,100035.19
2022-11-14T18:45:20.959Z,100019.06
2022-11-14T18:47:47.392Z,100027.97
2022-11-14T18:50:14.230Z,100029.09
2022-11-14T18:52:40.732Z,100019.34
2022-11-14T18:55:07.996Z,100015.38
2022-11-14T18:57:34.632Z,100014.28
2022-11-14T19:00:01.155Z,100002.97
2022-11-14T19:02:27.696Z,100003.88
2022-11-14T19:04:54.257Z,99998.78
2022-11-14T19:07:20.775Z,99994.28
2022-11-14T19:09:47.389Z,99994.97
2022-11-14T19:12:21.842Z,99990.59
2022-11-14T19:14:50.489Z,99990.03
2022-11-14T19:17:22.392Z,99972.84
2022-11-14T19:19:50.056Z,99975.97
2022-11-14T19:22:17.147Z,99980.19
2022-11-14T19:24:45.057Z,99972.16
2022-11-14T19:27:12.453Z,99980.53
2022-11-14T19:29:39.068Z,99977.38
2022-11-14T19:32:06.107Z,99977.97
2022-11-14T19:34:32.821Z,99983.50
2022-11-14T19:37:00.792Z,99980.81
2022-11-14T19:39:27.894Z,99977.13
2022-11-14T19:41:54.336Z,99981.09
2022-11-14T19:44:21.035Z,99980.66
2022-11-14T19:46:48.274Z,99986.19
2022-11-14T19:49:15.236Z,99981.66
2022-11-14T19:51:42.052Z,99976.03
2022-11-14T19:54:09.698Z,99976.56
2022-11-14T19:56:36.325Z,99976.28
2022-11-14T19:59:03.069Z,99987.44
2022-11-14T20:01:29.649Z,99984.47
2022-11-14T20:03:58.699Z,99974.59
2022-11-14T20:06:27.920Z,99977.84
2022-11-14T20:08:55.302Z,99980.81
2022-11-14T20:11:22.927Z,99974.59
2022-11-14T20:13:49.812Z,99978.16
2022-11-14T20:16:18.767Z,99977.00
2022-11-14T20:18:46.375Z,99976.72
2022-11-14T20:21:14.202Z,99969.25
2022-11-14T20:23:40.655Z,99972.19
2022-11-14T20:26:11.204Z,99961.03
2022-11-14T20:28:38.891Z,99961.88
2022-11-14T20:31:12.588Z,99967.00
2022-11-14T20:33:41.107Z,99969.69
2022-11-14T20:36:10.907Z,99974.19
2022-11-14T20:38:37.403Z,99973.13
2022-11-14T20:41:03.983Z,99962.47
2022-11-14T20:43:31.106Z,99962.75
2022-11-14T20:46:06.563Z,99963.03
2022-11-14T20:48:34.242Z,99966.00
2022-11-14T20:51:05.689Z,99967.69
2022-11-14T20:53:32.869Z,99958.53
2022-11-14T20:56:00.503Z,99959.09
2022-11-14T20:58:27.854Z,99951.03
2022-11-14T21:00:54.604Z,99947.81
2022-11-14T21:03:21.537Z,99953.28
2022-11-14T21:05:48.129Z,99948.06
2022-11-14T21:08:15.305Z,99945.69
2022-11-14T21:10:47.905Z,99938.75
2022-11-14T21:13:35.181Z,99945.53
2022-11-14T21:16:04.026Z,99949.78
2022-11-14T21:18:32.086Z,99949.66
2022-11-14T21:21:05.652Z,99948.38
2022-11-14T21:23:32.474Z,99950.56
2022-11-14T21:26:04.145Z,99937.56
2022-11-14T21:28:31.867Z,99941.19
2022-11-14T21:31:00.666Z,99930.75
2022-11-14T21:33:29.153Z,99929.88
2022-11-14T21:35:57.236Z,99934.25
2022-11-14T21:38:24.326Z,99939.34
2022-11-14T21:40:54.560Z,99925.97
2022-11-14T21:43:22.290Z,99923.03
2022-11-14T21:46:00.163Z,99924.41
2022-11-14T21:48:30.530Z,99924.94
2022-11-14T21:51:22.494Z,99923.09
2022-11-14T21:53:50.526Z,99914.56
2022-11-14T21:56:19.788Z,99918.16
2022-11-14T21:58:46.237Z,99927.84
2022-11-14T22:01:15.299Z,99922.69
2022-11-14T22:04:00.846Z,99931.06
2022-11-14T22:06:27.909Z,99926.78
2022-11-14T22:08:55.642Z,99915.41
2022-11-14T22:11:23.385Z,99917.16
2022-11-14T22:13:50.064Z,99913.63
2022-11-14T22:16:19.386Z,99906.91
2022-11-14T22:18:46.713Z,99901.38
2022-11-14T22:21:13.517Z,99909.81
2022-11-14T22:23:39.887Z,99911.69
2022-11-14T22:26:06.396Z,99915.66
2022-11-14T22:28:32.774Z,99912.03
2022-11-14T22:31:06.995Z,99912.53
2022-11-14T22:33:34.756Z,99909.50
2022-11-14T22:36:08.083Z,99904.28
2022-11-14T22:38:36.431Z,99903.59
2022-11-14T22:41:05.207Z,99909.94
2022-11-14T22:43:32.973Z,99914.31
2022-11-14T22:46:00.506Z,99908.69
2022-11-14T22:48:28.937Z,99917.69
2022-11-14T22:50:59.956Z,99916.44
2022-11-14T22:53:27.973Z,99905.59
2022-11-14T22:55:54.724Z,99911.94
2022-11-14T22:58:23.455Z,99909.69
2022-11-14T23:00:52.413Z,99912.50
2022-11-14T23:03:20.654Z,99918.28
2022-11-14T23:05:47.702Z,99911.50
2022-11-14T23:08:16.024Z,99907.50
2022-11-14T23:10:43.019Z,99916.19
2022-11-14T23:13:10.028Z,99916.59
2022-11-14T23:15:37.325Z,99919.06
2022-11-14T23:18:04.923Z,99918.72
2022-11-14T23:20:31.512Z,99920.94
2022-11-14T23:22:57.854Z,99917.34
2022-11-14T23:25:24.228Z,99915.19
2022-11-14T23:27:50.870Z,99908.69
2022-11-14T23:30:17.418Z,99890.97
2022-11-14T23:32:45.464Z,99894.25
2022-11-14T23:35:11.967Z,99889.59
2022-11-14T23:37:38.328Z,99883.25
2022-11-14T23:40:05.219Z,99885.66
2022-11-14T23:42:31.601Z,99889.06
2022-11-14T23:44:58.040Z,99891.25
2022-11-14T23:47:24.392Z,99891.78
2022-11-14T23:49:50.789Z,99882.97
2022-11-14T23:52:17.691Z,99884.69
2022-11-14T23:54:44.391Z,99880.94
2022-11-14T23:57:10.728Z,99877.44
2022-11-14T23:59:37.080Z,99879.97
